sensor_id;sensor_type;location;lat;lon;timestamp;pressure;altitude;pressure_sealevel;temperature;humidity
7748;BME280;3918;42.564;23.164;2023-07-29T04:01:11;-11650.84;;;-142.29;100.00
7748;BME280;3918;42.564;23.164;2023-07-29T04:22:08;-11650.84;;;-142.29;87.57
7748;BME280;3918;42.564;23.164;2023-07-29T04:24:48;-11650.84;;;-142.29;67.93
7748;BME280;3918;42.564;23.164;2023-07-29T04:30:35;-11650.84;;;-142.29;48.66
7748;BME280;3918;42.564;23.164;2023-07-29T04:33:15;-11650.84;;;-142.29;45.46
7748;BME280;3918;42.564;23.164;2023-07-29T04:35:56;-11650.84;;;-142.29;42.67
7748;BME280;3918;42.564;23.164;2023-07-29T04:41:41;-11650.84;;;-142.29;39.47
7748;BME280;3918;42.564;23.164;2023-07-29T04:44:08;-11650.84;;;-142.29;38.64
7748;BME280;3918;42.564;23.164;2023-07-29T04:46:35;-11650.84;;;-142.29;37.81
7748;BME280;3918;42.564;23.164;2023-07-29T04:49:45;-11650.84;;;-142.29;36.67
7748;BME280;3918;42.564;23.164;2023-07-29T04:52:11;-11650.84;;;-142.29;35.74
7748;BME280;3918;42.564;23.164;2023-07-29T05:02:29;-11650.84;;;-142.29;35.46
7748;BME280;3918;42.564;23.164;2023-07-29T05:09:12;-11650.84;;;-142.29;35.39
7748;BME280;3918;42.564;23.164;2023-07-29T05:15:18;-11650.84;;;-142.29;33.56
7748;BME280;3918;42.564;23.164;2023-07-29T05:18:06;-11650.84;;;-142.29;32.67
7748;BME280;3918;42.564;23.164;2023-07-29T07:03:10;-11650.84;;;-142.29;35.89
7748;BME280;3918;42.564;23.164;2023-07-29T07:05:51;-11650.84;;;-142.29;35.95
7748;BME280;3918;42.564;23.164;2023-07-29T07:08:37;-11650.84;;;-142.29;34.98
7748;BME280;3918;42.564;23.164;2023-07-29T07:11:04;-11650.84;;;-142.29;35.13
7748;BME280;3918;42.564;23.164;2023-07-29T07:13:31;-11650.84;;;-142.29;35.20
7748;BME280;3918;42.564;23.164;2023-07-29T07:15:59;-11650.84;;;-142.29;34.36
7748;BME280;3918;42.564;23.164;2023-07-29T07:28:55;-11650.84;;;-142.29;34.78
7748;BME280;3918;42.564;23.164;2023-07-29T07:31:36;-11650.84;;;-142.29;35.59
7748;BME280;3918;42.564;23.164;2023-07-29T07:34:23;-11650.84;;;-142.29;35.30
7748;BME280;3918;42.564;23.164;2023-07-29T07:37:28;-11650.84;;;-142.29;35.31
7748;BME280;3918;42.564;23.164;2023-07-29T07:40:16;-11650.84;;;-142.29;35.08
7748;BME280;3918;42.564;23.164;2023-07-29T07:42:43;-11650.84;;;-142.29;34.92
7748;BME280;3918;42.564;23.164;2023-07-29T07:48:10;-11650.84;;;-142.29;34.80
7748;BME280;3918;42.564;23.164;2023-07-29T07:50:51;-11650.84;;;-142.29;34.79
7748;BME280;3918;42.564;23.164;2023-07-29T07:56:52;-11650.84;;;-142.29;34.70
7748;BME280;3918;42.564;23.164;2023-07-29T07:59:33;-11650.84;;;-142.29;34.56
7748;BME280;3918;42.564;23.164;2023-07-29T08:05:34;-11650.84;;;-142.29;33.45
7748;BME280;3918;42.564;23.164;2023-07-29T08:12:03;-11650.84;;;-142.29;33.84
7748;BME280;3918;42.564;23.164;2023-07-29T08:14:43;-11650.84;;;-142.29;34.85
7748;BME280;3918;42.564;23.164;2023-07-29T08:17:10;-11650.84;;;-142.29;34.33
7748;BME280;3918;42.564;23.164;2023-07-29T08:19:51;-11650.84;;;-142.29;33.18
7748;BME280;3918;42.564;23.164;2023-07-29T08:22:19;-11650.84;;;-142.29;34.20
7748;BME280;3918;42.564;23.164;2023-07-29T08:25:00;-11650.84;;;-142.29;31.99
7748;BME280;3918;42.564;23.164;2023-07-29T08:30:49;-11650.84;;;-142.29;34.55
7748;BME280;3918;42.564;23.164;2023-07-29T08:33:29;-11650.84;;;-142.29;32.14
7748;BME280;3918;42.564;23.164;2023-07-29T08:36:34;-11650.84;;;-142.29;33.16
7748;BME280;3918;42.564;23.164;2023-07-29T08:39:14;-11650.84;;;-142.29;32.83
7748;BME280;3918;42.564;23.164;2023-07-29T08:42:29;-11650.84;;;-142.29;33.35
7748;BME280;3918;42.564;23.164;2023-07-29T08:45:28;-11650.84;;;-142.29;33.33
7748;BME280;3918;42.564;23.164;2023-07-29T08:48:12;-11650.84;;;-142.29;33.71
7748;BME280;3918;42.564;23.164;2023-07-29T08:50:56;-11650.84;;;-142.29;34.08
7748;BME280;3918;42.564;23.164;2023-07-29T08:53:48;-11650.84;;;-142.29;35.16
7748;BME280;3918;42.564;23.164;2023-07-29T08:56:30;-11650.84;;;-142.29;36.30
7748;BME280;3918;42.564;23.164;2023-07-29T08:59:12;-11650.84;;;-142.29;35.71
7748;BME280;3918;42.564;23.164;2023-07-29T09:01:54;-11650.84;;;-142.29;35.56
7748;BME280;3918;42.564;23.164;2023-07-29T09:04:35;-11650.84;;;-142.29;35.11
7748;BME280;3918;42.564;23.164;2023-07-29T09:07:16;-11650.84;;;-142.29;36.05
7748;BME280;3918;42.564;23.164;2023-07-29T09:09:56;-11650.84;;;-142.29;36.69
7748;BME280;3918;42.564;23.164;2023-07-29T09:15:27;-11650.84;;;-142.29;36.95
7748;BME280;3918;42.564;23.164;2023-07-29T09:18:09;-11650.84;;;-142.29;36.82
7748;BME280;3918;42.564;23.164;2023-07-29T09:20:50;-11650.84;;;-142.29;37.98
7748;BME280;3918;42.564;23.164;2023-07-29T09:23:17;-11650.84;;;-142.29;37.79
7748;BME280;3918;42.564;23.164;2023-07-29T09:25:46;-11650.84;;;-142.29;38.84
7748;BME280;3918;42.564;23.164;2023-07-29T09:28:33;-11650.84;;;-142.29;41.01
7748;BME280;3918;42.564;23.164;2023-07-29T09:31:37;-11650.84;;;-142.29;37.88
7748;BME280;3918;42.564;23.164;2023-07-29T09:34:05;-11650.84;;;-142.29;38.96
7748;BME280;3918;42.564;23.164;2023-07-29T09:36:33;-11650.84;;;-142.29;38.31
7748;BME280;3918;42.564;23.164;2023-07-29T09:39:23;-11650.84;;;-142.29;39.53
7748;BME280;3918;42.564;23.164;2023-07-29T09:42:04;-11650.84;;;-142.29;38.61
7748;BME280;3918;42.564;23.164;2023-07-29T09:44:37;-11650.84;;;-142.29;39.37
7748;BME280;3918;42.564;23.164;2023-07-29T09:47:21;-11650.84;;;-142.29;37.84
7748;BME280;3918;42.564;23.164;2023-07-29T09:50:18;-11650.84;;;-142.29;39.71
7748;BME280;3918;42.564;23.164;2023-07-29T09:53:11;-11650.84;;;-142.29;38.62
7748;BME280;3918;42.564;23.164;2023-07-29T09:55:53;-11650.84;;;-142.29;36.58
7748;BME280;3918;42.564;23.164;2023-07-29T09:58:38;-11650.84;;;-142.29;36.99
7748;BME280;3918;42.564;23.164;2023-07-29T10:01:20;-11650.84;;;-142.29;36.30
7748;BME280;3918;42.564;23.164;2023-07-29T10:04:15;-11650.84;;;-142.29;37.08
7748;BME280;3918;42.564;23.164;2023-07-29T10:06:56;-11650.84;;;-142.29;36.78
7748;BME280;3918;42.564;23.164;2023-07-29T10:09:41;-11650.84;;;-142.29;37.93
7748;BME280;3918;42.564;23.164;2023-07-29T10:12:24;-11650.84;;;-142.29;40.96
7748;BME280;3918;42.564;23.164;2023-07-29T10:15:06;-11650.84;;;-142.29;37.29
7748;BME280;3918;42.564;23.164;2023-07-29T10:17:36;-11650.84;;;-142.29;36.99
7748;BME280;3918;42.564;23.164;2023-07-29T10:21:07;-11650.84;;;-142.29;37.63
7748;BME280;3918;42.564;23.164;2023-07-29T10:23:49;-11650.84;;;-142.29;40.19
7748;BME280;3918;42.564;23.164;2023-07-29T10:29:55;-11650.84;;;-142.29;39.01
7748;BME280;3918;42.564;23.164;2023-07-29T10:33:04;-11650.84;;;-142.29;36.46
7748;BME280;3918;42.564;23.164;2023-07-29T10:39:07;-11650.84;;;-142.29;39.44
7748;BME280;3918;42.564;23.164;2023-07-29T10:41:55;-11650.84;;;-142.29;39.87
7748;BME280;3918;42.564;23.164;2023-07-29T10:44:52;-11650.84;;;-142.29;35.95
7748;BME280;3918;42.564;23.164;2023-07-29T10:47:32;-11650.84;;;-142.29;36.50
7748;BME280;3918;42.564;23.164;2023-07-29T10:50:01;-11650.84;;;-142.29;37.33
7748;BME280;3918;42.564;23.164;2023-07-29T10:52:41;-11650.84;;;-142.29;36.76
7748;BME280;3918;42.564;23.164;2023-07-29T10:55:25;-11650.84;;;-142.29;38.23
7748;BME280;3918;42.564;23.164;2023-07-29T10:58:12;-11650.84;;;-142.29;36.41
7748;BME280;3918;42.564;23.164;2023-07-29T11:04:25;-11650.84;;;-142.29;36.70
7748;BME280;3918;42.564;23.164;2023-07-29T11:11:04;-11650.84;;;-142.29;38.76
7748;BME280;3918;42.564;23.164;2023-07-29T11:13:45;-11650.84;;;-142.29;37.67
7748;BME280;3918;42.564;23.164;2023-07-29T11:16:26;-11650.84;;;-142.29;36.23
7748;BME280;3918;42.564;23.164;2023-07-29T11:19:12;-11650.84;;;-142.29;36.49
7748;BME280;3918;42.564;23.164;2023-07-29T11:22:16;-11650.84;;;-142.29;38.71
7748;BME280;3918;42.564;23.164;2023-07-29T11:24:58;-11650.84;;;-142.29;37.89
7748;BME280;3918;42.564;23.164;2023-07-29T11:27:43;-11650.84;;;-142.29;38.69
7748;BME280;3918;42.564;23.164;2023-07-29T11:30:47;-11650.84;;;-142.29;38.06
7748;BME280;3918;42.564;23.164;2023-07-29T11:33:51;-11650.84;;;-142.29;36.14
7748;BME280;3918;42.564;23.164;2023-07-29T11:39:47;-11650.84;;;-142.29;35.68
7748;BME280;3918;42.564;23.164;2023-07-29T11:42:31;-11650.84;;;-142.29;36.99
7748;BME280;3918;42.564;23.164;2023-07-29T11:49:13;-11650.84;;;-142.29;36.68
7748;BME280;3918;42.564;23.164;2023-07-29T11:52:23;-11650.84;;;-142.29;35.74
7748;BME280;3918;42.564;23.164;2023-07-29T12:05:10;-11650.84;;;-142.29;34.59
7748;BME280;3918;42.564;23.164;2023-07-29T12:08:14;-11650.84;;;-142.29;37.60
7748;BME280;3918;42.564;23.164;2023-07-29T12:10:42;-11650.84;;;-142.29;35.49
7748;BME280;3918;42.564;23.164;2023-07-29T12:13:24;-11650.84;;;-142.29;35.49
7748;BME280;3918;42.564;23.164;2023-07-29T12:16:29;-11650.84;;;-142.29;36.85
7748;BME280;3918;42.564;23.164;2023-07-29T12:19:44;-11650.84;;;-142.29;38.14
7748;BME280;3918;42.564;23.164;2023-07-29T12:28:54;-11650.84;;;-142.29;35.41
7748;BME280;3918;42.564;23.164;2023-07-29T12:31:37;-11650.84;;;-142.29;35.67
7748;BME280;3918;42.564;23.164;2023-07-29T12:34:18;-11650.84;;;-142.29;35.46
7748;BME280;3918;42.564;23.164;2023-07-29T12:37:02;-11650.84;;;-142.29;35.73
7748;BME280;3918;42.564;23.164;2023-07-29T12:40:20;-11650.84;;;-142.29;35.16
7748;BME280;3918;42.564;23.164;2023-07-29T12:43:01;-11650.84;;;-142.29;36.06
7748;BME280;3918;42.564;23.164;2023-07-29T12:48:48;-11650.84;;;-142.29;36.31
7748;BME280;3918;42.564;23.164;2023-07-29T12:51:15;-11650.84;;;-142.29;36.12
7748;BME280;3918;42.564;23.164;2023-07-29T12:53:56;-11650.84;;;-142.29;34.92
7748;BME280;3918;42.564;23.164;2023-07-29T12:56:22;-11650.84;;;-142.29;35.81
7748;BME280;3918;42.564;23.164;2023-07-29T12:58:49;-11650.84;;;-142.29;35.21
7748;BME280;3918;42.564;23.164;2023-07-29T13:01:32;-11650.84;;;-142.29;34.79
7748;BME280;3918;42.564;23.164;2023-07-29T13:04:36;-11650.84;;;-142.29;35.03
7748;BME280;3918;42.564;23.164;2023-07-29T13:07:17;-11650.84;;;-142.29;35.52
7748;BME280;3918;42.564;23.164;2023-07-29T13:09:57;-11650.84;;;-142.29;34.62
7748;BME280;3918;42.564;23.164;2023-07-29T13:12:38;-11650.84;;;-142.29;34.64
7748;BME280;3918;42.564;23.164;2023-07-29T13:15:06;-11650.84;;;-142.29;34.97
7748;BME280;3918;42.564;23.164;2023-07-29T13:17:53;-11650.84;;;-142.29;35.19
7748;BME280;3918;42.564;23.164;2023-07-29T13:20:33;-11650.84;;;-142.29;34.64
7748;BME280;3918;42.564;23.164;2023-07-29T13:23:02;-11650.84;;;-142.29;34.46
7748;BME280;3918;42.564;23.164;2023-07-29T13:25:43;-11650.84;;;-142.29;35.00
7748;BME280;3918;42.564;23.164;2023-07-29T13:28:24;-11650.84;;;-142.29;34.73
7748;BME280;3918;42.564;23.164;2023-07-29T13:31:04;-11650.84;;;-142.29;34.92
7748;BME280;3918;42.564;23.164;2023-07-29T13:33:46;-11650.84;;;-142.29;34.65
7748;BME280;3918;42.564;23.164;2023-07-29T13:36:27;-11650.84;;;-142.29;34.24
7748;BME280;3918;42.564;23.164;2023-07-29T13:39:08;-11650.84;;;-142.29;34.87
7748;BME280;3918;42.564;23.164;2023-07-29T13:41:48;-11650.84;;;-142.29;34.86
7748;BME280;3918;42.564;23.164;2023-07-29T13:47:39;-11650.84;;;-142.29;34.38
7748;BME280;3918;42.564;23.164;2023-07-29T13:50:21;-11650.84;;;-142.29;34.75
7748;BME280;3918;42.564;23.164;2023-07-29T13:53:02;-11650.84;;;-142.29;34.54
7748;BME280;3918;42.564;23.164;2023-07-29T13:55:43;-11650.84;;;-142.29;35.02
7748;BME280;3918;42.564;23.164;2023-07-29T13:58:23;-11650.84;;;-142.29;35.10
7748;BME280;3918;42.564;23.164;2023-07-29T14:01:11;-11650.84;;;-142.29;34.75
7748;BME280;3918;42.564;23.164;2023-07-29T14:03:51;-11650.84;;;-142.29;34.42
7748;BME280;3918;42.564;23.164;2023-07-29T14:16:14;-11650.84;;;-142.29;34.97
7748;BME280;3918;42.564;23.164;2023-07-29T14:21:57;-11650.84;;;-142.29;34.98
7748;BME280;3918;42.564;23.164;2023-07-29T14:27:25;-11650.84;;;-142.29;35.09
7748;BME280;3918;42.564;23.164;2023-07-29T14:30:06;-11650.84;;;-142.29;35.92
7748;BME280;3918;42.564;23.164;2023-07-29T14:39:09;-11650.84;;;-142.29;35.55
7748;BME280;3918;42.564;23.164;2023-07-29T14:41:49;-11650.84;;;-142.29;35.89
7748;BME280;3918;42.564;23.164;2023-07-29T14:44:16;-11650.84;;;-142.29;35.05
7748;BME280;3918;42.564;23.164;2023-07-29T14:46:57;-11650.84;;;-142.29;34.13
7748;BME280;3918;42.564;23.164;2023-07-29T14:49:41;-11650.84;;;-142.29;35.01
7748;BME280;3918;42.564;23.164;2023-07-29T14:58:44;-11650.84;;;-142.29;35.02
7748;BME280;3918;42.564;23.164;2023-07-29T15:01:24;-11650.84;;;-142.29;35.35
7748;BME280;3918;42.564;23.164;2023-07-29T15:03:56;-11650.84;;;-142.29;35.36
7748;BME280;3918;42.564;23.164;2023-07-29T15:06:23;-11650.84;;;-142.29;36.17
7748;BME280;3918;42.564;23.164;2023-07-29T15:08:50;-11650.84;;;-142.29;35.92
7748;BME280;3918;42.564;23.164;2023-07-29T15:21:56;-11650.84;;;-142.29;36.37
7748;BME280;3918;42.564;23.164;2023-07-29T15:24:23;-11650.84;;;-142.29;36.64
7748;BME280;3918;42.564;23.164;2023-07-29T15:26:50;-11650.84;;;-142.29;36.99
7748;BME280;3918;42.564;23.164;2023-07-29T15:29:30;-11650.84;;;-142.29;36.78
7748;BME280;3918;42.564;23.164;2023-07-29T15:32:17;-11650.84;;;-142.29;37.24
7748;BME280;3918;42.564;23.164;2023-07-29T15:34:59;-11650.84;;;-142.29;38.82
7748;BME280;3918;42.564;23.164;2023-07-29T15:37:40;-11650.84;;;-142.29;39.06
7748;BME280;3918;42.564;23.164;2023-07-29T15:40:08;-11650.84;;;-142.29;39.50
7748;BME280;3918;42.564;23.164;2023-07-29T15:42:48;-11650.84;;;-142.29;39.63
7748;BME280;3918;42.564;23.164;2023-07-29T15:45:29;-11650.84;;;-142.29;39.45
7748;BME280;3918;42.564;23.164;2023-07-29T15:47:56;-11650.84;;;-142.29;39.73
7748;BME280;3918;42.564;23.164;2023-07-29T15:53:28;-11650.84;;;-142.29;40.81
7748;BME280;3918;42.564;23.164;2023-07-29T15:55:55;-11650.84;;;-142.29;40.96
7748;BME280;3918;42.564;23.164;2023-07-29T15:58:22;-11650.84;;;-142.29;40.69
7748;BME280;3918;42.564;23.164;2023-07-29T16:00:48;-11650.84;;;-142.29;41.53
7748;BME280;3918;42.564;23.164;2023-07-29T16:03:15;-11650.84;;;-142.29;41.56
7748;BME280;3918;42.564;23.164;2023-07-29T16:05:44;-11650.84;;;-142.29;42.05
7748;BME280;3918;42.564;23.164;2023-07-29T16:08:29;-11650.84;;;-142.29;41.99
7748;BME280;3918;42.564;23.164;2023-07-29T16:11:10;-11650.84;;;-142.29;42.32
7748;BME280;3918;42.564;23.164;2023-07-29T16:13:37;-11650.84;;;-142.29;43.08
7748;BME280;3918;42.564;23.164;2023-07-29T16:16:04;-11650.84;;;-142.29;43.00
7748;BME280;3918;42.564;23.164;2023-07-29T16:18:31;-11650.84;;;-142.29;43.26
7748;BME280;3918;42.564;23.164;2023-07-29T16:20:59;-11650.84;;;-142.29;43.70
7748;BME280;3918;42.564;23.164;2023-07-29T16:23:29;-11650.84;;;-142.29;43.69
7748;BME280;3918;42.564;23.164;2023-07-29T16:25:56;-11650.84;;;-142.29;44.22
7748;BME280;3918;42.564;23.164;2023-07-29T16:28:23;-11650.84;;;-142.29;44.01
7748;BME280;3918;42.564;23.164;2023-07-29T16:30:50;-11650.84;;;-142.29;44.16
7748;BME280;3918;42.564;23.164;2023-07-29T16:33:16;-11650.84;;;-142.29;44.67
7748;BME280;3918;42.564;23.164;2023-07-29T16:35:43;-11650.84;;;-142.29;44.38
7748;BME280;3918;42.564;23.164;2023-07-29T16:38:56;-11650.84;;;-142.29;44.32
7748;BME280;3918;42.564;23.164;2023-07-29T16:41:58;-11650.84;;;-142.29;44.69
7748;BME280;3918;42.564;23.164;2023-07-29T16:44:58;-11650.84;;;-142.29;45.10
7748;BME280;3918;42.564;23.164;2023-07-29T16:47:25;-11650.84;;;-142.29;45.24
7748;BME280;3918;42.564;23.164;2023-07-29T16:49:52;-11650.84;;;-142.29;45.71
7748;BME280;3918;42.564;23.164;2023-07-29T16:52:19;-11650.84;;;-142.29;45.57
7748;BME280;3918;42.564;23.164;2023-07-29T16:54:47;-11650.84;;;-142.29;45.79
7748;BME280;3918;42.564;23.164;2023-07-29T16:57:28;-11650.84;;;-142.29;45.89
7748;BME280;3918;42.564;23.164;2023-07-29T16:59:57;-11650.84;;;-142.29;45.92
7748;BME280;3918;42.564;23.164;2023-07-29T17:02:24;-11650.84;;;-142.29;46.06
7748;BME280;3918;42.564;23.164;2023-07-29T17:04:51;-11650.84;;;-142.29;46.07
7748;BME280;3918;42.564;23.164;2023-07-29T17:07:18;-11650.84;;;-142.29;45.86
7748;BME280;3918;42.564;23.164;2023-07-29T17:09:46;-11650.84;;;-142.29;45.84
7748;BME280;3918;42.564;23.164;2023-07-29T17:12:27;-11650.84;;;-142.29;46.08
7748;BME280;3918;42.564;23.164;2023-07-29T17:14:54;-11650.84;;;-142.29;46.08
7748;BME280;3918;42.564;23.164;2023-07-29T17:17:34;-11650.84;;;-142.29;45.84
7748;BME280;3918;42.564;23.164;2023-07-29T17:20:15;-11650.84;;;-142.29;46.40
7748;BME280;3918;42.564;23.164;2023-07-29T17:23:02;-11650.84;;;-142.29;46.35
7748;BME280;3918;42.564;23.164;2023-07-29T17:28:48;-11650.84;;;-142.29;47.32
7748;BME280;3918;42.564;23.164;2023-07-29T17:31:19;-11650.84;;;-142.29;47.73
7748;BME280;3918;42.564;23.164;2023-07-29T17:33:59;-11650.84;;;-142.29;48.10
7748;BME280;3918;42.564;23.164;2023-07-29T17:37:18;-11650.84;;;-142.29;48.54
7748;BME280;3918;42.564;23.164;2023-07-29T17:39:45;-11650.84;;;-142.29;49.54
7748;BME280;3918;42.564;23.164;2023-07-29T17:42:11;-11650.84;;;-142.29;49.43
7748;BME280;3918;42.564;23.164;2023-07-29T17:47:43;-11650.84;;;-142.29;49.84
7748;BME280;3918;42.564;23.164;2023-07-29T17:50:24;-11650.84;;;-142.29;50.56
7748;BME280;3918;42.564;23.164;2023-07-29T17:56:18;-11650.84;;;-142.29;51.15
7748;BME280;3918;42.564;23.164;2023-07-29T17:58:45;-11650.84;;;-142.29;51.96
7748;BME280;3918;42.564;23.164;2023-07-29T18:01:15;-11650.84;;;-142.29;52.18
7748;BME280;3918;42.564;23.164;2023-07-29T18:07:17;-11650.84;;;-142.29;53.25
7748;BME280;3918;42.564;23.164;2023-07-29T18:09:43;-11650.84;;;-142.29;54.05
7748;BME280;3918;42.564;23.164;2023-07-29T18:12:42;-11650.84;;;-142.29;54.70
7748;BME280;3918;42.564;23.164;2023-07-29T18:15:10;-11650.84;;;-142.29;53.72
7748;BME280;3918;42.564;23.164;2023-07-29T18:17:52;-11650.84;;;-142.29;53.54
7748;BME280;3918;42.564;23.164;2023-07-29T18:20:33;-11650.84;;;-142.29;53.66
7748;BME280;3918;42.564;23.164;2023-07-29T18:23:24;-11650.84;;;-142.29;53.27
7748;BME280;3918;42.564;23.164;2023-07-29T18:25:51;-11650.84;;;-142.29;53.62
7748;BME280;3918;42.564;23.164;2023-07-29T18:28:40;-11650.84;;;-142.29;54.06
7748;BME280;3918;42.564;23.164;2023-07-29T18:31:09;-11650.84;;;-142.29;54.57
7748;BME280;3918;42.564;23.164;2023-07-29T18:33:37;-11650.84;;;-142.29;54.92
7748;BME280;3918;42.564;23.164;2023-07-29T18:36:18;-11650.84;;;-142.29;55.73
7748;BME280;3918;42.564;23.164;2023-07-29T18:38:44;-11650.84;;;-142.29;56.59
7748;BME280;3918;42.564;23.164;2023-07-29T18:41:11;-11650.84;;;-142.29;57.14
7748;BME280;3918;42.564;23.164;2023-07-29T18:43:38;-11650.84;;;-142.29;57.67
7748;BME280;3918;42.564;23.164;2023-07-29T18:46:05;-11650.84;;;-142.29;57.60
7748;BME280;3918;42.564;23.164;2023-07-29T18:48:33;-11650.84;;;-142.29;58.36
7748;BME280;3918;42.564;23.164;2023-07-29T18:51:03;-11650.84;;;-142.29;59.37
7748;BME280;3918;42.564;23.164;2023-07-29T18:53:38;-11650.84;;;-142.29;60.74
7748;BME280;3918;42.564;23.164;2023-07-29T18:56:05;-11650.84;;;-142.29;60.91
7748;BME280;3918;42.564;23.164;2023-07-29T18:58:32;-11650.84;;;-142.29;61.69
7748;BME280;3918;42.564;23.164;2023-07-29T19:00:58;-11650.84;;;-142.29;62.08
